sensor_id;sensor_type;location;lat;lon;timestamp;temperature;humidity
79571;DHT22;69034;49.444;7.758;2023-07-29T00:02:47;20.50;73.30
79571;DHT22;69034;49.444;7.758;2023-07-29T00:06:48;20.50;73.40
79571;DHT22;69034;49.444;7.758;2023-07-29T00:10:48;20.40;73.50
79571;DHT22;69034;49.444;7.758;2023-07-29T00:14:49;20.30;73.50
79571;DHT22;69034;49.444;7.758;2023-07-29T00:18:51;20.30;73.60
79571;DHT22;69034;49.444;7.758;2023-07-29T00:22:52;20.20;73.60
79571;DHT22;69034;49.444;7.758;2023-07-29T00:26:58;20.20;73.60
79571;DHT22;69034;49.444;7.758;2023-07-29T00:30:59;20.10;73.90
79571;DHT22;69034;49.444;7.758;2023-07-29T00:34:59;20.10;74.10
79571;DHT22;69034;49.444;7.758;2023-07-29T00:39:01;20.10;74.20
79571;DHT22;69034;49.444;7.758;2023-07-29T00:43:02;20.10;74.30
79571;DHT22;69034;49.444;7.758;2023-07-29T00:47:03;20.10;74.50
79571;DHT22;69034;49.444;7.758;2023-07-29T00:51:06;20.10;74.30
79571;DHT22;69034;49.444;7.758;2023-07-29T00:55:08;20.10;74.20
79571;DHT22;69034;49.444;7.758;2023-07-29T00:59:09;20.20;74.20
79571;DHT22;69034;49.444;7.758;2023-07-29T01:03:10;20.20;74.30
79571;DHT22;69034;49.444;7.758;2023-07-29T01:15:43;20.50;74.30
79571;DHT22;69034;49.444;7.758;2023-07-29T01:20:09;20.60;74.10
79571;DHT22;69034;49.444;7.758;2023-07-29T01:24:11;20.70;73.90
79571;DHT22;69034;49.444;7.758;2023-07-29T01:28:12;20.80;73.80
79571;DHT22;69034;49.444;7.758;2023-07-29T01:36:42;20.80;74.00
79571;DHT22;69034;49.444;7.758;2023-07-29T01:40:43;20.90;73.70
79571;DHT22;69034;49.444;7.758;2023-07-29T01:44:44;21.00;73.60
79571;DHT22;69034;49.444;7.758;2023-07-29T01:48:45;21.10;73.40
79571;DHT22;69034;49.444;7.758;2023-07-29T01:52:46;21.10;73.30
79571;DHT22;69034;49.444;7.758;2023-07-29T01:56:46;21.20;73.10
79571;DHT22;69034;49.444;7.758;2023-07-29T02:00:47;21.30;73.00
79571;DHT22;69034;49.444;7.758;2023-07-29T02:04:48;21.30;73.00
79571;DHT22;69034;49.444;7.758;2023-07-29T02:08:52;21.30;72.90
79571;DHT22;69034;49.444;7.758;2023-07-29T02:12:53;21.40;72.80
79571;DHT22;69034;49.444;7.758;2023-07-29T02:16:53;21.40;72.70
79571;DHT22;69034;49.444;7.758;2023-07-29T02:20:54;21.40;72.80
79571;DHT22;69034;49.444;7.758;2023-07-29T02:24:55;21.40;72.80
79571;DHT22;69034;49.444;7.758;2023-07-29T02:28:55;21.40;72.80
79571;DHT22;69034;49.444;7.758;2023-07-29T02:32:56;21.40;72.80
79571;DHT22;69034;49.444;7.758;2023-07-29T02:36:57;21.50;72.70
79571;DHT22;69034;49.444;7.758;2023-07-29T02:40:57;21.40;72.70
79571;DHT22;69034;49.444;7.758;2023-07-29T02:44:58;21.30;72.90
79571;DHT22;69034;49.444;7.758;2023-07-29T02:48:59;21.20;73.00
79571;DHT22;69034;49.444;7.758;2023-07-29T02:53:00;21.10;73.30
79571;DHT22;69034;49.444;7.758;2023-07-29T02:57:04;21.00;73.60
79571;DHT22;69034;49.444;7.758;2023-07-29T03:01:05;20.90;73.70
79571;DHT22;69034;49.444;7.758;2023-07-29T03:05:06;20.90;73.90
79571;DHT22;69034;49.444;7.758;2023-07-29T03:09:07;20.90;73.90
79571;DHT22;69034;49.444;7.758;2023-07-29T03:13:08;20.90;74.00
79571;DHT22;69034;49.444;7.758;2023-07-29T03:17:09;20.90;74.00
79571;DHT22;69034;49.444;7.758;2023-07-29T03:21:10;20.80;74.10
79571;DHT22;69034;49.444;7.758;2023-07-29T03:25:11;20.80;74.30
79571;DHT22;69034;49.444;7.758;2023-07-29T03:29:13;20.80;74.40
79571;DHT22;69034;49.444;7.758;2023-07-29T03:33:15;20.80;74.50
79571;DHT22;69034;49.444;7.758;2023-07-29T03:37:16;20.70;74.70
79571;DHT22;69034;49.444;7.758;2023-07-29T03:41:16;20.70;74.70
79571;DHT22;69034;49.444;7.758;2023-07-29T03:45:17;20.70;74.80
79571;DHT22;69034;49.444;7.758;2023-07-29T03:49:18;20.70;74.80
79571;DHT22;69034;49.444;7.758;2023-07-29T03:53:20;20.60;74.70
79571;DHT22;69034;49.444;7.758;2023-07-29T03:57:22;20.60;74.80
79571;DHT22;69034;49.444;7.758;2023-07-29T04:01:23;20.60;74.90
79571;DHT22;69034;49.444;7.758;2023-07-29T04:05:23;20.60;75.00
79571;DHT22;69034;49.444;7.758;2023-07-29T04:09:24;20.50;75.00
79571;DHT22;69034;49.444;7.758;2023-07-29T04:13:25;20.50;74.80
79571;DHT22;69034;49.444;7.758;2023-07-29T04:17:25;20.50;74.70
79571;DHT22;69034;49.444;7.758;2023-07-29T04:21:26;20.50;74.60
79571;DHT22;69034;49.444;7.758;2023-07-29T04:25:28;20.50;74.60
79571;DHT22;69034;49.444;7.758;2023-07-29T04:29:28;20.60;74.70
79571;DHT22;69034;49.444;7.758;2023-07-29T04:33:30;20.60;74.80
79571;DHT22;69034;49.444;7.758;2023-07-29T04:37:31;20.80;74.70
79571;DHT22;69034;49.444;7.758;2023-07-29T04:41:31;21.00;74.30
79571;DHT22;69034;49.444;7.758;2023-07-29T04:45:32;21.20;74.10
79571;DHT22;69034;49.444;7.758;2023-07-29T04:49:33;21.30;73.80
79571;DHT22;69034;49.444;7.758;2023-07-29T04:53:34;21.40;73.70
79571;DHT22;69034;49.444;7.758;2023-07-29T04:57:36;21.50;73.70
79571;DHT22;69034;49.444;7.758;2023-07-29T05:01:37;21.60;73.60
79571;DHT22;69034;49.444;7.758;2023-07-29T05:05:38;21.70;73.50
79571;DHT22;69034;49.444;7.758;2023-07-29T05:09:39;21.90;73.10
79571;DHT22;69034;49.444;7.758;2023-07-29T05:13:39;22.00;72.70
79571;DHT22;69034;49.444;7.758;2023-07-29T05:17:40;22.10;72.80
79571;DHT22;69034;49.444;7.758;2023-07-29T05:21:41;22.10;72.90
79571;DHT22;69034;49.444;7.758;2023-07-29T05:25:42;22.20;72.70
79571;DHT22;69034;49.444;7.758;2023-07-29T05:29:43;22.30;72.30
79571;DHT22;69034;49.444;7.758;2023-07-29T05:33:44;22.50;72.00
79571;DHT22;69034;49.444;7.758;2023-07-29T05:37:45;22.50;72.20
79571;DHT22;69034;49.444;7.758;2023-07-29T05:41:46;22.50;72.20
79571;DHT22;69034;49.444;7.758;2023-07-29T05:45:48;22.60;72.00
79571;DHT22;69034;49.444;7.758;2023-07-29T05:49:49;22.60;71.90
79571;DHT22;69034;49.444;7.758;2023-07-29T05:53:49;22.80;71.70
79571;DHT22;69034;49.444;7.758;2023-07-29T05:57:50;22.90;71.60
79571;DHT22;69034;49.444;7.758;2023-07-29T06:01:52;23.00;71.30
79571;DHT22;69034;49.444;7.758;2023-07-29T06:05:54;23.10;71.20
79571;DHT22;69034;49.444;7.758;2023-07-29T06:09:55;23.30;70.90
79571;DHT22;69034;49.444;7.758;2023-07-29T06:13:58;23.60;70.50
79571;DHT22;69034;49.444;7.758;2023-07-29T06:17:58;23.70;70.20
79571;DHT22;69034;49.444;7.758;2023-07-29T06:21:59;23.80;70.10
79571;DHT22;69034;49.444;7.758;2023-07-29T06:26:02;23.80;70.20
79571;DHT22;69034;49.444;7.758;2023-07-29T06:30:03;24.10;69.60
79571;DHT22;69034;49.444;7.758;2023-07-29T06:34:03;24.20;69.40
79571;DHT22;69034;49.444;7.758;2023-07-29T06:38:04;24.20;69.60
79571;DHT22;69034;49.444;7.758;2023-07-29T06:42:05;24.20;69.50
79571;DHT22;69034;49.444;7.758;2023-07-29T06:46:05;24.60;68.60
79571;DHT22;69034;49.444;7.758;2023-07-29T06:50:06;25.30;67.40
79571;DHT22;69034;49.444;7.758;2023-07-29T06:54:07;25.30;67.40
79571;DHT22;69034;49.444;7.758;2023-07-29T06:58:08;25.20;67.70
79571;DHT22;69034;49.444;7.758;2023-07-29T07:02:08;25.70;66.60
79571;DHT22;69034;49.444;7.758;2023-07-29T07:06:09;25.40;67.20
79571;DHT22;69034;49.444;7.758;2023-07-29T07:10:10;24.90;67.80
79571;DHT22;69034;49.444;7.758;2023-07-29T07:14:12;24.40;68.20
79571;DHT22;69034;49.444;7.758;2023-07-29T07:18:12;23.90;68.70
79571;DHT22;69034;49.444;7.758;2023-07-29T07:22:13;23.50;69.00
79571;DHT22;69034;49.444;7.758;2023-07-29T07:26:14;23.20;69.30
79571;DHT22;69034;49.444;7.758;2023-07-29T07:30:16;23.00;69.20
79571;DHT22;69034;49.444;7.758;2023-07-29T07:34:19;23.10;68.90
79571;DHT22;69034;49.444;7.758;2023-07-29T07:38:20;23.40;68.00
79571;DHT22;69034;49.444;7.758;2023-07-29T07:42:21;24.10;66.50
79571;DHT22;69034;49.444;7.758;2023-07-29T07:46:24;24.30;66.70
79571;DHT22;69034;49.444;7.758;2023-07-29T07:50:25;24.60;66.40
79571;DHT22;69034;49.444;7.758;2023-07-29T07:54:29;24.70;66.30
79571;DHT22;69034;49.444;7.758;2023-07-29T07:58:29;24.70;66.50
79571;DHT22;69034;49.444;7.758;2023-07-29T08:02:30;24.60;66.70
79571;DHT22;69034;49.444;7.758;2023-07-29T08:06:32;24.60;66.50
79571;DHT22;69034;49.444;7.758;2023-07-29T08:10:32;25.10;65.40
79571;DHT22;69034;49.444;7.758;2023-07-29T08:14:33;25.80;64.30
79571;DHT22;69034;49.444;7.758;2023-07-29T08:18:35;26.50;63.10
79571;DHT22;69034;49.444;7.758;2023-07-29T08:22:35;27.20;62.60
79571;DHT22;69034;49.444;7.758;2023-07-29T08:26:36;27.30;62.70
79571;DHT22;69034;49.444;7.758;2023-07-29T08:30:38;27.70;62.30
79571;DHT22;69034;49.444;7.758;2023-07-29T08:34:38;28.50;61.30
79571;DHT22;69034;49.444;7.758;2023-07-29T08:38:39;29.20;60.50
79571;DHT22;69034;49.444;7.758;2023-07-29T08:42:42;29.90;59.70
79571;DHT22;69034;49.444;7.758;2023-07-29T08:46:45;30.10;59.60
79571;DHT22;69034;49.444;7.758;2023-07-29T08:50:46;30.40;59.10
79571;DHT22;69034;49.444;7.758;2023-07-29T08:54:48;30.80;58.60
79571;DHT22;69034;49.444;7.758;2023-07-29T08:58:52;31.00;58.00
79571;DHT22;69034;49.444;7.758;2023-07-29T09:02:53;31.50;57.30
79571;DHT22;69034;49.444;7.758;2023-07-29T09:06:56;32.10;56.50
79571;DHT22;69034;49.444;7.758;2023-07-29T09:10:56;33.20;54.80
79571;DHT22;69034;49.444;7.758;2023-07-29T09:14:58;34.00;53.40
79571;DHT22;69034;49.444;7.758;2023-07-29T09:19:01;34.20;52.60
79571;DHT22;69034;49.444;7.758;2023-07-29T09:23:02;33.70;52.70
79571;DHT22;69034;49.444;7.758;2023-07-29T09:27:04;33.20;52.50
79571;DHT22;69034;49.444;7.758;2023-07-29T09:31:07;33.40;51.50
79571;DHT22;69034;49.444;7.758;2023-07-29T09:35:18;33.40;51.40
79571;DHT22;69034;49.444;7.758;2023-07-29T09:39:23;33.80;50.40
79571;DHT22;69034;49.444;7.758;2023-07-29T09:43:32;33.80;50.60
79571;DHT22;69034;49.444;7.758;2023-07-29T09:47:32;34.00;50.10
79571;DHT22;69034;49.444;7.758;2023-07-29T09:51:40;35.10;48.70
79571;DHT22;69034;49.444;7.758;2023-07-29T09:55:46;36.20;47.50
79571;DHT22;69034;49.444;7.758;2023-07-29T09:59:55;37.30;46.20
79571;DHT22;69034;49.444;7.758;2023-07-29T10:03:56;37.00;46.40
79571;DHT22;69034;49.444;7.758;2023-07-29T10:08:00;36.40;46.40
79571;DHT22;69034;49.444;7.758;2023-07-29T10:12:04;36.00;44.80
79571;DHT22;69034;49.444;7.758;2023-07-29T10:16:06;36.10;44.60
79571;DHT22;69034;49.444;7.758;2023-07-29T10:20:08;36.60;42.20
79571;DHT22;69034;49.444;7.758;2023-07-29T10:24:16;37.30;39.70
79571;DHT22;69034;49.444;7.758;2023-07-29T10:28:20;38.30;38.40
79571;DHT22;69034;49.444;7.758;2023-07-29T10:32:30;39.30;37.30
79571;DHT22;69034;49.444;7.758;2023-07-29T10:36:32;40.30;36.40
79571;DHT22;69034;49.444;7.758;2023-07-29T10:40:54;41.50;33.70
79571;DHT22;69034;49.444;7.758;2023-07-29T10:44:56;42.80;32.10
79571;DHT22;69034;49.444;7.758;2023-07-29T10:48:59;44.40;31.00
79571;DHT22;69034;49.444;7.758;2023-07-29T10:53:02;45.40;30.00
79571;DHT22;69034;49.444;7.758;2023-07-29T10:57:03;43.80;30.40
79571;DHT22;69034;49.444;7.758;2023-07-29T11:01:12;43.30;31.30
79571;DHT22;69034;49.444;7.758;2023-07-29T11:05:19;41.50;32.60
79571;DHT22;69034;49.444;7.758;2023-07-29T11:09:39;41.40;31.40
79571;DHT22;69034;49.444;7.758;2023-07-29T11:13:40;41.60;30.50
79571;DHT22;69034;49.444;7.758;2023-07-29T11:17:49;43.10;29.20
79571;DHT22;69034;49.444;7.758;2023-07-29T11:21:56;44.50;28.20
79571;DHT22;69034;49.444;7.758;2023-07-29T11:25:57;45.80;27.60
79571;DHT22;69034;49.444;7.758;2023-07-29T11:30:03;45.50;27.80
79571;DHT22;69034;49.444;7.758;2023-07-29T11:34:07;45.00;26.80
79571;DHT22;69034;49.444;7.758;2023-07-29T11:38:07;43.50;27.40
79571;DHT22;69034;49.444;7.758;2023-07-29T11:42:14;42.10;28.10
79571;DHT22;69034;49.444;7.758;2023-07-29T11:46:15;40.90;29.00
79571;DHT22;69034;49.444;7.758;2023-07-29T11:50:16;39.60;30.00
79571;DHT22;69034;49.444;7.758;2023-07-29T11:54:17;38.50;30.50
79571;DHT22;69034;49.444;7.758;2023-07-29T11:58:21;37.90;31.20
79571;DHT22;69034;49.444;7.758;2023-07-29T12:02:24;37.40;31.60
79571;DHT22;69034;49.444;7.758;2023-07-29T12:06:26;40.10;29.50
79571;DHT22;69034;49.444;7.758;2023-07-29T12:10:27;39.60;29.60
79571;DHT22;69034;49.444;7.758;2023-07-29T12:14:31;39.00;30.10
79571;DHT22;69034;49.444;7.758;2023-07-29T12:18:32;40.30;29.90
79571;DHT22;69034;49.444;7.758;2023-07-29T12:22:33;43.40;26.80
79571;DHT22;69034;49.444;7.758;2023-07-29T12:26:36;41.30;28.90
79571;DHT22;69034;49.444;7.758;2023-07-29T12:30:43;40.00;29.40
79571;DHT22;69034;49.444;7.758;2023-07-29T12:34:44;39.20;29.60
79571;DHT22;69034;49.444;7.758;2023-07-29T12:38:46;39.40;29.60
79571;DHT22;69034;49.444;7.758;2023-07-29T12:42:47;40.40;29.00
79571;DHT22;69034;49.444;7.758;2023-07-29T12:46:48;40.00;29.50
79571;DHT22;69034;49.444;7.758;2023-07-29T12:50:49;43.40;27.60
79571;DHT22;69034;49.444;7.758;2023-07-29T12:54:50;46.10;25.60
79571;DHT22;69034;49.444;7.758;2023-07-29T12:58:51;47.30;24.70
79571;DHT22;69034;49.444;7.758;2023-07-29T13:02:52;46.60;24.60
79571;DHT22;69034;49.444;7.758;2023-07-29T13:06:54;43.70;26.30
79571;DHT22;69034;49.444;7.758;2023-07-29T13:10:57;41.50;27.70
79571;DHT22;69034;49.444;7.758;2023-07-29T13:14:58;40.00;28.50
79571;DHT22;69034;49.444;7.758;2023-07-29T13:18:58;41.20;27.50
79571;DHT22;69034;49.444;7.758;2023-07-29T13:22:59;42.70;26.40
79571;DHT22;69034;49.444;7.758;2023-07-29T13:27:00;41.10;27.70
79571;DHT22;69034;49.444;7.758;2023-07-29T13:31:02;39.50;28.80
79571;DHT22;69034;49.444;7.758;2023-07-29T13:35:04;38.60;29.30
79571;DHT22;69034;49.444;7.758;2023-07-29T13:39:05;39.10;30.10
79571;DHT22;69034;49.444;7.758;2023-07-29T13:43:07;44.00;26.00
79571;DHT22;69034;49.444;7.758;2023-07-29T13:47:07;46.80;24.40
79571;DHT22;69034;49.444;7.758;2023-07-29T13:51:08;48.40;19.00
79571;DHT22;69034;49.444;7.758;2023-07-29T13:55:09;46.10;24.50
79571;DHT22;69034;49.444;7.758;2023-07-29T13:59:10;43.70;25.60
79571;DHT22;69034;49.444;7.758;2023-07-29T14:03:11;41.90;26.40
79571;DHT22;69034;49.444;7.758;2023-07-29T14:07:11;40.70;27.10
79571;DHT22;69034;49.444;7.758;2023-07-29T14:11:12;44.10;25.60
79571;DHT22;69034;49.444;7.758;2023-07-29T14:15:13;44.40;24.70
79571;DHT22;69034;49.444;7.758;2023-07-29T14:19:13;42.40;25.80
79571;DHT22;69034;49.444;7.758;2023-07-29T14:23:14;41.20;26.70
79571;DHT22;69034;49.444;7.758;2023-07-29T14:27:15;43.00;25.40
79571;DHT22;69034;49.444;7.758;2023-07-29T14:31:17;43.90;25.30
79571;DHT22;69034;49.444;7.758;2023-07-29T14:35:19;46.30;24.20
79571;DHT22;69034;49.444;7.758;2023-07-29T14:39:20;49.90;18.30
79571;DHT22;69034;49.444;7.758;2023-07-29T14:43:21;50.00;18.50
79571;DHT22;69034;49.444;7.758;2023-07-29T14:47:21;50.30;18.30
79571;DHT22;69034;49.444;7.758;2023-07-29T14:51:23;51.30;17.20
79571;DHT22;69034;49.444;7.758;2023-07-29T14:55:24;50.20;17.00
79571;DHT22;69034;49.444;7.758;2023-07-29T14:59:24;47.80;18.30
79571;DHT22;69034;49.444;7.758;2023-07-29T15:03:25;48.60;17.60
79571;DHT22;69034;49.444;7.758;2023-07-29T15:07:26;51.10;16.80
79571;DHT22;69034;49.444;7.758;2023-07-29T15:11:26;50.60;17.10
79571;DHT22;69034;49.444;7.758;2023-07-29T15:15:27;51.00;17.00
79571;DHT22;69034;49.444;7.758;2023-07-29T15:19:28;53.10;16.00
79571;DHT22;69034;49.444;7.758;2023-07-29T15:23:29;50.90;16.70
79571;DHT22;69034;49.444;7.758;2023-07-29T15:27:30;50.80;16.50
79571;DHT22;69034;49.444;7.758;2023-07-29T15:31:33;48.00;17.60
79571;DHT22;69034;49.444;7.758;2023-07-29T15:35:39;47.10;18.10
79571;DHT22;69034;49.444;7.758;2023-07-29T15:39:40;48.60;16.60
79571;DHT22;69034;49.444;7.758;2023-07-29T15:43:40;47.30;17.10
79571;DHT22;69034;49.444;7.758;2023-07-29T15:47:41;43.30;19.10
79571;DHT22;69034;49.444;7.758;2023-07-29T15:51:41;41.00;24.50
79571;DHT22;69034;49.444;7.758;2023-07-29T15:55:42;39.60;25.70
79571;DHT22;69034;49.444;7.758;2023-07-29T15:59:43;39.40;25.90
79571;DHT22;69034;49.444;7.758;2023-07-29T16:03:44;40.20;25.80
79571;DHT22;69034;49.444;7.758;2023-07-29T16:07:44;39.30;26.70
79571;DHT22;69034;49.444;7.758;2023-07-29T16:11:45;37.40;28.40
79571;DHT22;69034;49.444;7.758;2023-07-29T16:15:45;36.00;29.60
79571;DHT22;69034;49.444;7.758;2023-07-29T16:19:58;35.10;30.70
79571;DHT22;69034;49.444;7.758;2023-07-29T16:23:58;35.70;30.60
79571;DHT22;69034;49.444;7.758;2023-07-29T16:27:59;34.90;31.40
79571;DHT22;69034;49.444;7.758;2023-07-29T16:32:00;34.10;32.50
79571;DHT22;69034;49.444;7.758;2023-07-29T16:36:01;33.50;33.20
79571;DHT22;69034;49.444;7.758;2023-07-29T16:40:02;33.60;33.40
79571;DHT22;69034;49.444;7.758;2023-07-29T16:44:03;35.70;31.80
79571;DHT22;69034;49.444;7.758;2023-07-29T16:48:04;37.20;30.90
79571;DHT22;69034;49.444;7.758;2023-07-29T16:52:06;38.00;30.40
79571;DHT22;69034;49.444;7.758;2023-07-29T16:56:07;38.50;30.00
79571;DHT22;69034;49.444;7.758;2023-07-29T17:00:08;38.70;29.90
79571;DHT22;69034;49.444;7.758;2023-07-29T17:04:09;38.60;29.80
79571;DHT22;69034;49.444;7.758;2023-07-29T17:08:09;38.60;29.70
79571;DHT22;69034;49.444;7.758;2023-07-29T17:12:11;37.30;30.60
79571;DHT22;69034;49.444;7.758;2023-07-29T17:16:11;35.60;31.80
79571;DHT22;69034;49.444;7.758;2023-07-29T17:20:12;34.30;33.20
79571;DHT22;69034;49.444;7.758;2023-07-29T17:24:14;33.80;33.60
79571;DHT22;69034;49.444;7.758;2023-07-29T17:28:15;33.30;34.10
79571;DHT22;69034;49.444;7.758;2023-07-29T17:32:17;32.50;35.10
79571;DHT22;69034;49.444;7.758;2023-07-29T17:36:17;31.70;36.10
79571;DHT22;69034;49.444;7.758;2023-07-29T17:40:18;31.30;36.90
79571;DHT22;69034;49.444;7.758;2023-07-29T17:44:19;31.00;37.60
79571;DHT22;69034;49.444;7.758;2023-07-29T17:48:19;30.80;38.50
79571;DHT22;69034;49.444;7.758;2023-07-29T17:52:20;30.60;39.10
79571;DHT22;69034;49.444;7.758;2023-07-29T17:56:21;30.40;39.50
79571;DHT22;69034;49.444;7.758;2023-07-29T18:00:21;30.40;39.90
79571;DHT22;69034;49.444;7.758;2023-07-29T18:04:25;30.30;40.30
79571;DHT22;69034;49.444;7.758;2023-07-29T18:08:27;30.10;40.80
79571;DHT22;69034;49.444;7.758;2023-07-29T18:12:27;30.00;41.10
79571;DHT22;69034;49.444;7.758;2023-07-29T18:16:28;29.90;41.40
79571;DHT22;69034;49.444;7.758;2023-07-29T18:20:29;29.70;41.70
79571;DHT22;69034;49.444;7.758;2023-07-29T18:24:29;29.50;42.30
79571;DHT22;69034;49.444;7.758;2023-07-29T18:28:30;29.20;43.00
79571;DHT22;69034;49.444;7.758;2023-07-29T18:32:31;29.00;43.30
79571;DHT22;69034;49.444;7.758;2023-07-29T18:36:31;28.80;43.70
79571;DHT22;69034;49.444;7.758;2023-07-29T18:40:32;28.60;44.30
79571;DHT22;69034;49.444;7.758;2023-07-29T18:44:33;28.40;44.60
79571;DHT22;69034;49.444;7.758;2023-07-29T18:48:34;28.20;45.20
79571;DHT22;69034;49.444;7.758;2023-07-29T18:52:34;28.00;45.60
79571;DHT22;69034;49.444;7.758;2023-07-29T18:56:35;27.90;45.70
79571;DHT22;69034;49.444;7.758;2023-07-29T19:00:37;27.80;46.10
79571;DHT22;69034;49.444;7.758;2023-07-29T19:04:38;27.60;46.50
79571;DHT22;69034;49.444;7.758;2023-07-29T19:08:39;27.50;46.70
79571;DHT22;69034;49.444;7.758;2023-07-29T19:12:40;27.30;47.10
79571;DHT22;69034;49.444;7.758;2023-07-29T19:16:42;27.10;47.50
79571;DHT22;69034;49.444;7.758;2023-07-29T19:20:47;26.90;48.00
79571;DHT22;69034;49.444;7.758;2023-07-29T19:24:49;26.80;48.40
79571;DHT22;69034;49.444;7.758;2023-07-29T19:28:51;26.60;48.90
79571;DHT22;69034;49.444;7.758;2023-07-29T19:32:53;26.50;49.40
79571;DHT22;69034;49.444;7.758;2023-07-29T19:36:54;26.50;49.70
79571;DHT22;69034;49.444;7.758;2023-07-29T19:40:59;26.40;50.00
79571;DHT22;69034;49.444;7.758;2023-07-29T19:45:01;26.30;50.40
79571;DHT22;69034;49.444;7.758;2023-07-29T19:49:03;26.10;50.70
79571;DHT22;69034;49.444;7.758;2023-07-29T19:53:04;26.00;51.30
79571;DHT22;69034;49.444;7.758;2023-07-29T19:57:04;25.80;51.70
79571;DHT22;69034;49.444;7.758;2023-07-29T20:01:07;25.70;52.00
79571;DHT22;69034;49.444;7.758;2023-07-29T20:05:08;25.60;52.30
79571;DHT22;69034;49.444;7.758;2023-07-29T20:09:09;25.50;52.70
79571;DHT22;69034;49.444;7.758;2023-07-29T20:13:11;25.40;52.90
79571;DHT22;69034;49.444;7.758;2023-07-29T20:17:12;25.40;53.40
79571;DHT22;69034;49.444;7.758;2023-07-29T20:21:12;25.30;53.50
79571;DHT22;69034;49.444;7.758;2023-07-29T20:25:13;25.20;53.80
79571;DHT22;69034;49.444;7.758;2023-07-29T20:29:14;25.20;53.90
79571;DHT22;69034;49.444;7.758;2023-07-29T20:33:14;25.10;54.40
79571;DHT22;69034;49.444;7.758;2023-07-29T20:37:16;25.00;54.70
79571;DHT22;69034;49.444;7.758;2023-07-29T20:41:17;24.90;55.10
79571;DHT22;69034;49.444;7.758;2023-07-29T20:45:19;24.80;55.80
79571;DHT22;69034;49.444;7.758;2023-07-29T20:49:20;24.80;56.10
79571;DHT22;69034;49.444;7.758;2023-07-29T20:53:21;24.70;56.20
79571;DHT22;69034;49.444;7.758;2023-07-29T20:57:22;24.60;56.20
79571;DHT22;69034;49.444;7.758;2023-07-29T21:01:22;24.60;56.40
79571;DHT22;69034;49.444;7.758;2023-07-29T21:05:24;24.40;57.60
79571;DHT22;69034;49.444;7.758;2023-07-29T21:09:27;24.20;58.70
79571;DHT22;69034;49.444;7.758;2023-07-29T21:13:29;24.00;59.10
79571;DHT22;69034;49.444;7.758;2023-07-29T21:17:30;23.90;59.30
79571;DHT22;69034;49.444;7.758;2023-07-29T21:21:30;23.90;59.20
79571;DHT22;69034;49.444;7.758;2023-07-29T21:25:32;24.00;59.00
79571;DHT22;69034;49.444;7.758;2023-07-29T21:29:33;24.00;58.90
79571;DHT22;69034;49.444;7.758;2023-07-29T21:33:34;24.00;58.70
79571;DHT22;69034;49.444;7.758;2023-07-29T21:37:35;24.00;58.50
79571;DHT22;69034;49.444;7.758;2023-07-29T21:41:35;24.00;58.60
79571;DHT22;69034;49.444;7.758;2023-07-29T21:45:36;24.00;58.40
79571;DHT22;69034;49.444;7.758;2023-07-29T21:49:37;24.00;58.40
79571;DHT22;69034;49.444;7.758;2023-07-29T21:53:38;24.00;58.30
79571;DHT22;69034;49.444;7.758;2023-07-29T21:57:39;24.00;58.20
79571;DHT22;69034;49.444;7.758;2023-07-29T22:01:40;23.90;58.30
79571;DHT22;69034;49.444;7.758;2023-07-29T22:05:40;23.90;58.30
79571;DHT22;69034;49.444;7.758;2023-07-29T22:09:41;23.80;58.30
79571;DHT22;69034;49.444;7.758;2023-07-29T22:13:42;23.80;58.40
79571;DHT22;69034;49.444;7.758;2023-07-29T22:17:42;23.70;58.40
79571;DHT22;69034;49.444;7.758;2023-07-29T22:21:43;23.70;58.30
79571;DHT22;69034;49.444;7.758;2023-07-29T22:26:03;23.70;58.20
79571;DHT22;69034;49.444;7.758;2023-07-29T22:30:08;23.70;58.40
79571;DHT22;69034;49.444;7.758;2023-07-29T22:34:08;23.60;58.60
79571;DHT22;69034;49.444;7.758;2023-07-29T22:38:09;23.50;58.80
79571;DHT22;69034;49.444;7.758;2023-07-29T22:42:09;23.40;58.90
79571;DHT22;69034;49.444;7.758;2023-07-29T22:46:11;23.40;58.90
79571;DHT22;69034;49.444;7.758;2023-07-29T22:50:14;23.40;59.10
79571;DHT22;69034;49.444;7.758;2023-07-29T22:54:16;23.30;59.30
79571;DHT22;69034;49.444;7.758;2023-07-29T22:58:18;23.30;59.40
79571;DHT22;69034;49.444;7.758;2023-07-29T23:02:19;23.30;59.60
79571;DHT22;69034;49.444;7.758;2023-07-29T23:06:21;23.30;59.50
79571;DHT22;69034;49.444;7.758;2023-07-29T23:10:22;23.30;59.40
79571;DHT22;69034;49.444;7.758;2023-07-29T23:14:24;23.20;59.60
79571;DHT22;69034;49.444;7.758;2023-07-29T23:18:25;23.10;59.80
79571;DHT22;69034;49.444;7.758;2023-07-29T23:22:26;22.90;60.10
79571;DHT22;69034;49.444;7.758;2023-07-29T23:26:27;22.80;60.40
79571;DHT22;69034;49.444;7.758;2023-07-29T23:30:28;22.60;60.80
79571;DHT22;69034;49.444;7.758;2023-07-29T23:34:28;22.50;60.90
79571;DHT22;69034;49.444;7.758;2023-07-29T23:38:29;22.50;61.10
79571;DHT22;69034;49.444;7.758;2023-07-29T23:42:30;22.40;61.20
79571;DHT22;69034;49.444;7.758;2023-07-29T23:46:30;22.30;61.50
79571;DHT22;69034;49.444;7.758;2023-07-29T23:50:31;22.30;61.60
79571;DHT22;69034;49.444;7.758;2023-07-29T23:54:32;22.30;61.70
79571;DHT22;69034;49.444;7.758;2023-07-29T23:58:32;22.20;62.00
